sensor_id;sensor_type;location;lat;lon;timestamp;temperature;humidity
16040;DHT22;8124;48.634;8.120;2023-07-29T00:01:07;23.10;99.90
16040;DHT22;8124;48.634;8.120;2023-07-29T00:06:11;23.10;99.90
16040;DHT22;8124;48.634;8.120;2023-07-29T00:11:15;23.00;99.90
16040;DHT22;8124;48.634;8.120;2023-07-29T00:16:18;22.90;99.90
16040;DHT22;8124;48.634;8.120;2023-07-29T00:21:25;23.00;99.90
16040;DHT22;8124;48.634;8.120;2023-07-29T00:26:28;23.00;99.90
16040;DHT22;8124;48.634;8.120;2023-07-29T00:31:32;23.00;99.90
16040;DHT22;8124;48.634;8.120;2023-07-29T00:36:36;22.90;99.90
16040;DHT22;8124;48.634;8.120;2023-07-29T00:41:40;23.00;99.90
16040;DHT22;8124;48.634;8.120;2023-07-29T00:46:46;23.00;99.90
16040;DHT22;8124;48.634;8.120;2023-07-29T00:51:51;23.00;99.90
16040;DHT22;8124;48.634;8.120;2023-07-29T00:56:54;22.90;99.90
16040;DHT22;8124;48.634;8.120;2023-07-29T01:01:57;23.00;99.90
16040;DHT22;8124;48.634;8.120;2023-07-29T01:07:07;23.00;99.90
16040;DHT22;8124;48.634;8.120;2023-07-29T01:12:20;23.00;99.90
16040;DHT22;8124;48.634;8.120;2023-07-29T01:17:29;23.00;99.90
16040;DHT22;8124;48.634;8.120;2023-07-29T01:22:36;23.10;99.90
16040;DHT22;8124;48.634;8.120;2023-07-29T01:27:42;23.10;99.90
16040;DHT22;8124;48.634;8.120;2023-07-29T01:32:50;23.00;99.90
16040;DHT22;8124;48.634;8.120;2023-07-29T01:37:57;23.00;99.90
16040;DHT22;8124;48.634;8.120;2023-07-29T01:43:03;23.00;99.90
16040;DHT22;8124;48.634;8.120;2023-07-29T01:48:09;23.10;99.90
16040;DHT22;8124;48.634;8.120;2023-07-29T01:53:12;23.00;99.90
16040;DHT22;8124;48.634;8.120;2023-07-29T01:58:16;23.00;99.90
16040;DHT22;8124;48.634;8.120;2023-07-29T02:03:22;23.10;99.90
16040;DHT22;8124;48.634;8.120;2023-07-29T02:08:24;23.10;99.90
16040;DHT22;8124;48.634;8.120;2023-07-29T02:13:29;23.00;99.90
16040;DHT22;8124;48.634;8.120;2023-07-29T02:18:32;23.00;99.90
16040;DHT22;8124;48.634;8.120;2023-07-29T02:23:35;23.10;99.90
16040;DHT22;8124;48.634;8.120;2023-07-29T02:28:40;23.10;99.90
16040;DHT22;8124;48.634;8.120;2023-07-29T02:33:43;23.20;99.90
16040;DHT22;8124;48.634;8.120;2023-07-29T02:38:46;23.30;99.90
16040;DHT22;8124;48.634;8.120;2023-07-29T02:43:51;23.30;99.90
16040;DHT22;8124;48.634;8.120;2023-07-29T02:48:54;23.30;99.90
16040;DHT22;8124;48.634;8.120;2023-07-29T02:53:57;23.20;99.90
16040;DHT22;8124;48.634;8.120;2023-07-29T02:59:01;23.30;99.90
16040;DHT22;8124;48.634;8.120;2023-07-29T03:04:05;23.00;99.90
16040;DHT22;8124;48.634;8.120;2023-07-29T03:09:08;22.90;99.90
16040;DHT22;8124;48.634;8.120;2023-07-29T03:14:12;22.80;99.90
16040;DHT22;8124;48.634;8.120;2023-07-29T03:19:16;22.80;99.90
16040;DHT22;8124;48.634;8.120;2023-07-29T03:24:19;22.90;99.90
16040;DHT22;8124;48.634;8.120;2023-07-29T03:29:23;22.60;99.90
16040;DHT22;8124;48.634;8.120;2023-07-29T03:34:26;22.60;99.90
16040;DHT22;8124;48.634;8.120;2023-07-29T03:39:29;22.30;99.90
16040;DHT22;8124;48.634;8.120;2023-07-29T03:44:34;22.20;99.90
16040;DHT22;8124;48.634;8.120;2023-07-29T03:49:37;22.10;99.90
16040;DHT22;8124;48.634;8.120;2023-07-29T03:54:41;22.00;99.90
16040;DHT22;8124;48.634;8.120;2023-07-29T03:59:45;22.00;99.90
16040;DHT22;8124;48.634;8.120;2023-07-29T04:04:48;22.10;99.90
16040;DHT22;8124;48.634;8.120;2023-07-29T04:09:51;22.10;99.90
16040;DHT22;8124;48.634;8.120;2023-07-29T04:14:56;22.00;99.90
16040;DHT22;8124;48.634;8.120;2023-07-29T04:19:59;22.00;99.90
16040;DHT22;8124;48.634;8.120;2023-07-29T04:25:08;22.00;99.90
16040;DHT22;8124;48.634;8.120;2023-07-29T04:30:12;22.00;99.90
16040;DHT22;8124;48.634;8.120;2023-07-29T04:35:15;22.10;99.90
16040;DHT22;8124;48.634;8.120;2023-07-29T04:40:19;22.20;99.90
16040;DHT22;8124;48.634;8.120;2023-07-29T04:45:23;22.30;99.90
16040;DHT22;8124;48.634;8.120;2023-07-29T04:50:30;22.30;99.90
16040;DHT22;8124;48.634;8.120;2023-07-29T04:55:33;22.30;99.90
16040;DHT22;8124;48.634;8.120;2023-07-29T05:00:37;22.30;99.90
16040;DHT22;8124;48.634;8.120;2023-07-29T05:05:40;22.30;99.90
16040;DHT22;8124;48.634;8.120;2023-07-29T05:10:43;22.30;99.90
16040;DHT22;8124;48.634;8.120;2023-07-29T05:15:48;22.30;99.90
16040;DHT22;8124;48.634;8.120;2023-07-29T05:20:52;22.40;99.90
16040;DHT22;8124;48.634;8.120;2023-07-29T05:25:55;22.40;99.90
16040;DHT22;8124;48.634;8.120;2023-07-29T05:31:01;22.40;99.90
16040;DHT22;8124;48.634;8.120;2023-07-29T05:36:05;22.40;99.90
16040;DHT22;8124;48.634;8.120;2023-07-29T05:41:08;22.40;99.90
16040;DHT22;8124;48.634;8.120;2023-07-29T05:46:12;22.40;99.90
16040;DHT22;8124;48.634;8.120;2023-07-29T05:51:16;22.50;99.90
16040;DHT22;8124;48.634;8.120;2023-07-29T05:56:18;22.50;99.90
16040;DHT22;8124;48.634;8.120;2023-07-29T06:01:23;22.40;99.90
16040;DHT22;8124;48.634;8.120;2023-07-29T06:06:27;22.40;99.90
16040;DHT22;8124;48.634;8.120;2023-07-29T06:11:30;22.30;99.90
16040;DHT22;8124;48.634;8.120;2023-07-29T06:16:34;22.30;99.90
16040;DHT22;8124;48.634;8.120;2023-07-29T06:21:38;22.20;99.90
16040;DHT22;8124;48.634;8.120;2023-07-29T06:26:41;22.00;99.90
16040;DHT22;8124;48.634;8.120;2023-07-29T06:31:45;22.20;99.90
16040;DHT22;8124;48.634;8.120;2023-07-29T06:36:48;22.20;99.90
16040;DHT22;8124;48.634;8.120;2023-07-29T06:41:51;22.20;99.90
16040;DHT22;8124;48.634;8.120;2023-07-29T06:46:57;22.30;99.90
16040;DHT22;8124;48.634;8.120;2023-07-29T06:52:01;22.30;99.90
16040;DHT22;8124;48.634;8.120;2023-07-29T06:57:04;22.30;99.90
16040;DHT22;8124;48.634;8.120;2023-07-29T07:02:09;22.40;99.90
16040;DHT22;8124;48.634;8.120;2023-07-29T07:07:12;22.40;99.90
16040;DHT22;8124;48.634;8.120;2023-07-29T07:12:15;22.30;99.90
16040;DHT22;8124;48.634;8.120;2023-07-29T07:17:19;22.50;99.90
16040;DHT22;8124;48.634;8.120;2023-07-29T07:22:23;22.70;99.90
16040;DHT22;8124;48.634;8.120;2023-07-29T07:27:26;23.00;99.90
16040;DHT22;8124;48.634;8.120;2023-07-29T07:32:30;23.30;99.90
16040;DHT22;8124;48.634;8.120;2023-07-29T07:37:33;23.30;99.90
16040;DHT22;8124;48.634;8.120;2023-07-29T07:42:36;23.10;99.90
16040;DHT22;8124;48.634;8.120;2023-07-29T07:47:40;23.20;99.90
16040;DHT22;8124;48.634;8.120;2023-07-29T07:52:43;23.40;99.90
16040;DHT22;8124;48.634;8.120;2023-07-29T07:57:46;23.70;99.90
16040;DHT22;8124;48.634;8.120;2023-07-29T08:02:51;23.80;99.90
16040;DHT22;8124;48.634;8.120;2023-07-29T08:07:54;23.90;99.90
16040;DHT22;8124;48.634;8.120;2023-07-29T08:12:57;24.20;99.90
16040;DHT22;8124;48.634;8.120;2023-07-29T08:18:02;24.10;99.90
16040;DHT22;8124;48.634;8.120;2023-07-29T08:23:05;24.00;99.90
16040;DHT22;8124;48.634;8.120;2023-07-29T08:28:08;24.10;99.90
16040;DHT22;8124;48.634;8.120;2023-07-29T08:33:14;24.10;99.90
16040;DHT22;8124;48.634;8.120;2023-07-29T08:38:17;24.20;99.90
16040;DHT22;8124;48.634;8.120;2023-07-29T08:43:26;24.10;99.90
16040;DHT22;8124;48.634;8.120;2023-07-29T08:48:40;24.20;99.90
16040;DHT22;8124;48.634;8.120;2023-07-29T08:53:43;24.00;99.90
16040;DHT22;8124;48.634;8.120;2023-07-29T08:58:46;24.10;99.90
16040;DHT22;8124;48.634;8.120;2023-07-29T09:03:51;24.00;99.90
16040;DHT22;8124;48.634;8.120;2023-07-29T09:08:55;23.90;99.90
16040;DHT22;8124;48.634;8.120;2023-07-29T09:13:58;24.00;99.90
16040;DHT22;8124;48.634;8.120;2023-07-29T09:19:03;24.10;99.90
16040;DHT22;8124;48.634;8.120;2023-07-29T09:24:07;24.50;99.90
16040;DHT22;8124;48.634;8.120;2023-07-29T09:29:10;24.50;99.90
16040;DHT22;8124;48.634;8.120;2023-07-29T09:34:15;24.80;99.90
16040;DHT22;8124;48.634;8.120;2023-07-29T09:39:23;25.10;99.90
16040;DHT22;8124;48.634;8.120;2023-07-29T09:44:26;25.30;99.90
16040;DHT22;8124;48.634;8.120;2023-07-29T09:49:35;25.30;99.90
16040;DHT22;8124;48.634;8.120;2023-07-29T09:54:38;25.20;99.90
16040;DHT22;8124;48.634;8.120;2023-07-29T09:59:41;25.50;99.90
16040;DHT22;8124;48.634;8.120;2023-07-29T10:04:46;25.10;99.90
16040;DHT22;8124;48.634;8.120;2023-07-29T10:09:51;25.20;99.90
16040;DHT22;8124;48.634;8.120;2023-07-29T10:14:55;25.20;99.90
16040;DHT22;8124;48.634;8.120;2023-07-29T10:20:03;25.20;99.90
16040;DHT22;8124;48.634;8.120;2023-07-29T10:25:08;25.10;99.90
16040;DHT22;8124;48.634;8.120;2023-07-29T10:30:13;25.20;99.90
16040;DHT22;8124;48.634;8.120;2023-07-29T10:35:18;25.10;99.90
16040;DHT22;8124;48.634;8.120;2023-07-29T10:40:21;25.00;99.90
16040;DHT22;8124;48.634;8.120;2023-07-29T10:45:24;25.20;99.90
16040;DHT22;8124;48.634;8.120;2023-07-29T10:50:29;25.10;99.90
16040;DHT22;8124;48.634;8.120;2023-07-29T10:55:33;25.00;99.90
16040;DHT22;8124;48.634;8.120;2023-07-29T11:00:38;25.50;99.90
16040;DHT22;8124;48.634;8.120;2023-07-29T11:05:54;25.70;99.90
16040;DHT22;8124;48.634;8.120;2023-07-29T11:11:02;25.50;99.90
16040;DHT22;8124;48.634;8.120;2023-07-29T11:16:06;25.50;99.90
16040;DHT22;8124;48.634;8.120;2023-07-29T11:21:11;25.80;99.90
16040;DHT22;8124;48.634;8.120;2023-07-29T11:26:16;26.00;99.90
16040;DHT22;8124;48.634;8.120;2023-07-29T11:31:19;26.40;99.90
16040;DHT22;8124;48.634;8.120;2023-07-29T11:36:24;26.40;99.90
16040;DHT22;8124;48.634;8.120;2023-07-29T11:41:27;26.50;99.90
16040;DHT22;8124;48.634;8.120;2023-07-29T11:46:30;26.50;99.90
16040;DHT22;8124;48.634;8.120;2023-07-29T11:51:35;26.40;99.90
16040;DHT22;8124;48.634;8.120;2023-07-29T11:56:39;26.50;99.90
16040;DHT22;8124;48.634;8.120;2023-07-29T12:01:42;26.60;99.90
16040;DHT22;8124;48.634;8.120;2023-07-29T12:06:47;26.80;99.90
16040;DHT22;8124;48.634;8.120;2023-07-29T12:11:50;26.90;99.90
16040;DHT22;8124;48.634;8.120;2023-07-29T12:16:54;26.90;99.90
16040;DHT22;8124;48.634;8.120;2023-07-29T12:21:58;27.00;99.90
16040;DHT22;8124;48.634;8.120;2023-07-29T12:27:02;26.90;99.90
16040;DHT22;8124;48.634;8.120;2023-07-29T12:32:05;27.20;99.90
16040;DHT22;8124;48.634;8.120;2023-07-29T12:37:10;27.40;99.90
16040;DHT22;8124;48.634;8.120;2023-07-29T12:42:13;27.20;99.90
16040;DHT22;8124;48.634;8.120;2023-07-29T12:47:16;27.00;99.90
16040;DHT22;8124;48.634;8.120;2023-07-29T12:52:20;27.10;99.90
16040;DHT22;8124;48.634;8.120;2023-07-29T12:57:23;27.30;99.90
16040;DHT22;8124;48.634;8.120;2023-07-29T13:02:26;27.30;99.90
16040;DHT22;8124;48.634;8.120;2023-07-29T13:07:31;27.20;99.90
16040;DHT22;8124;48.634;8.120;2023-07-29T13:12:34;27.30;99.90
16040;DHT22;8124;48.634;8.120;2023-07-29T13:17:37;27.40;99.90
16040;DHT22;8124;48.634;8.120;2023-07-29T13:22:42;27.50;99.90
16040;DHT22;8124;48.634;8.120;2023-07-29T13:27:45;27.20;99.90
16040;DHT22;8124;48.634;8.120;2023-07-29T13:32:48;27.20;99.90
16040;DHT22;8124;48.634;8.120;2023-07-29T13:37:53;27.30;99.90
16040;DHT22;8124;48.634;8.120;2023-07-29T13:42:56;27.30;99.90
16040;DHT22;8124;48.634;8.120;2023-07-29T13:47:59;27.50;99.90
16040;DHT22;8124;48.634;8.120;2023-07-29T13:53:03;27.50;99.90
16040;DHT22;8124;48.634;8.120;2023-07-29T13:58:07;27.40;99.90
16040;DHT22;8124;48.634;8.120;2023-07-29T14:03:10;27.30;99.90
16040;DHT22;8124;48.634;8.120;2023-07-29T14:08:14;27.30;99.90
16040;DHT22;8124;48.634;8.120;2023-07-29T14:13:17;27.30;99.90
16040;DHT22;8124;48.634;8.120;2023-07-29T14:18:20;27.50;99.90
16040;DHT22;8124;48.634;8.120;2023-07-29T14:23:25;27.50;99.90
16040;DHT22;8124;48.634;8.120;2023-07-29T14:28:28;27.30;99.90
16040;DHT22;8124;48.634;8.120;2023-07-29T14:33:31;27.20;99.90
16040;DHT22;8124;48.634;8.120;2023-07-29T14:38:36;27.20;99.90
16040;DHT22;8124;48.634;8.120;2023-07-29T14:43:39;27.50;99.90
16040;DHT22;8124;48.634;8.120;2023-07-29T14:48:42;27.80;99.90
16040;DHT22;8124;48.634;8.120;2023-07-29T14:53:46;27.80;99.90
16040;DHT22;8124;48.634;8.120;2023-07-29T14:58:49;27.90;99.90
16040;DHT22;8124;48.634;8.120;2023-07-29T15:03:53;27.90;99.90
16040;DHT22;8124;48.634;8.120;2023-07-29T15:08:57;27.90;99.90
16040;DHT22;8124;48.634;8.120;2023-07-29T15:14:01;28.00;99.90
16040;DHT22;8124;48.634;8.120;2023-07-29T15:19:05;28.00;99.90
16040;DHT22;8124;48.634;8.120;2023-07-29T15:24:10;27.70;99.90
16040;DHT22;8124;48.634;8.120;2023-07-29T15:29:13;27.80;99.90
16040;DHT22;8124;48.634;8.120;2023-07-29T15:34:16;27.70;99.90
16040;DHT22;8124;48.634;8.120;2023-07-29T15:39:20;27.50;99.90
16040;DHT22;8124;48.634;8.120;2023-07-29T15:44:23;27.50;99.90
16040;DHT22;8124;48.634;8.120;2023-07-29T15:49:26;27.70;99.90
16040;DHT22;8124;48.634;8.120;2023-07-29T15:54:31;27.50;99.90
16040;DHT22;8124;48.634;8.120;2023-07-29T15:59:34;27.40;99.90
16040;DHT22;8124;48.634;8.120;2023-07-29T16:04:40;27.30;99.90
16040;DHT22;8124;48.634;8.120;2023-07-29T16:09:44;27.20;99.90
16040;DHT22;8124;48.634;8.120;2023-07-29T16:14:48;27.00;99.90
16040;DHT22;8124;48.634;8.120;2023-07-29T16:19:53;26.60;99.90
16040;DHT22;8124;48.634;8.120;2023-07-29T16:24:58;26.20;99.90
16040;DHT22;8124;48.634;8.120;2023-07-29T16:30:02;26.10;99.90
16040;DHT22;8124;48.634;8.120;2023-07-29T16:35:06;26.30;99.90
16040;DHT22;8124;48.634;8.120;2023-07-29T16:40:11;26.30;99.90
16040;DHT22;8124;48.634;8.120;2023-07-29T16:45:15;26.10;99.90
16040;DHT22;8124;48.634;8.120;2023-07-29T16:50:18;25.80;99.90
16040;DHT22;8124;48.634;8.120;2023-07-29T16:55:22;25.50;99.90
16040;DHT22;8124;48.634;8.120;2023-07-29T17:00:25;25.70;99.90
16040;DHT22;8124;48.634;8.120;2023-07-29T17:05:29;25.70;99.90
16040;DHT22;8124;48.634;8.120;2023-07-29T17:10:33;25.60;99.90
16040;DHT22;8124;48.634;8.120;2023-07-29T17:15:37;25.30;99.90
16040;DHT22;8124;48.634;8.120;2023-07-29T17:20:41;25.30;99.90
16040;DHT22;8124;48.634;8.120;2023-07-29T17:25:46;25.60;99.90
16040;DHT22;8124;48.634;8.120;2023-07-29T17:30:49;25.70;99.90
16040;DHT22;8124;48.634;8.120;2023-07-29T17:35:53;25.50;99.90
16040;DHT22;8124;48.634;8.120;2023-07-29T17:40:58;25.40;99.90
16040;DHT22;8124;48.634;8.120;2023-07-29T17:46:05;25.40;99.90
16040;DHT22;8124;48.634;8.120;2023-07-29T17:51:08;25.30;99.90
16040;DHT22;8124;48.634;8.120;2023-07-29T17:56:23;25.20;99.90
16040;DHT22;8124;48.634;8.120;2023-07-29T18:01:48;25.20;99.90
16040;DHT22;8124;48.634;8.120;2023-07-29T18:07:17;25.10;99.90
16040;DHT22;8124;48.634;8.120;2023-07-29T18:12:25;25.40;99.90
16040;DHT22;8124;48.634;8.120;2023-07-29T18:17:29;25.30;99.90
16040;DHT22;8124;48.634;8.120;2023-07-29T18:22:32;25.20;99.90
16040;DHT22;8124;48.634;8.120;2023-07-29T18:33:14;25.20;99.90
16040;DHT22;8124;48.634;8.120;2023-07-29T18:38:17;25.10;99.90
16040;DHT22;8124;48.634;8.120;2023-07-29T18:43:22;24.90;99.90
16040;DHT22;8124;48.634;8.120;2023-07-29T18:48:25;24.80;99.90
16040;DHT22;8124;48.634;8.120;2023-07-29T18:53:28;24.80;99.90
16040;DHT22;8124;48.634;8.120;2023-07-29T18:58:37;24.80;99.90
16040;DHT22;8124;48.634;8.120;2023-07-29T19:03:41;24.80;99.90
16040;DHT22;8124;48.634;8.120;2023-07-29T19:08:47;24.80;99.90
16040;DHT22;8124;48.634;8.120;2023-07-29T19:13:52;24.70;99.90
16040;DHT22;8124;48.634;8.120;2023-07-29T19:18:58;24.70;99.90
16040;DHT22;8124;48.634;8.120;2023-07-29T19:24:02;24.60;99.90
16040;DHT22;8124;48.634;8.120;2023-07-29T19:29:06;24.60;99.90
16040;DHT22;8124;48.634;8.120;2023-07-29T19:34:10;24.50;99.90
16040;DHT22;8124;48.634;8.120;2023-07-29T19:39:13;24.40;99.90
16040;DHT22;8124;48.634;8.120;2023-07-29T19:44:17;24.50;99.90
16040;DHT22;8124;48.634;8.120;2023-07-29T19:49:24;24.30;99.90
16040;DHT22;8124;48.634;8.120;2023-07-29T19:54:27;24.30;99.90
16040;DHT22;8124;48.634;8.120;2023-07-29T19:59:32;24.20;99.90
16040;DHT22;8124;48.634;8.120;2023-07-29T20:04:49;24.40;99.90
16040;DHT22;8124;48.634;8.120;2023-07-29T20:09:52;24.50;99.90
16040;DHT22;8124;48.634;8.120;2023-07-29T20:14:57;24.40;99.90
16040;DHT22;8124;48.634;8.120;2023-07-29T20:20:02;24.40;99.90
16040;DHT22;8124;48.634;8.120;2023-07-29T20:25:07;24.40;99.90
16040;DHT22;8124;48.634;8.120;2023-07-29T20:30:11;24.30;99.90
16040;DHT22;8124;48.634;8.120;2023-07-29T20:35:14;24.40;99.90
16040;DHT22;8124;48.634;8.120;2023-07-29T20:40:17;24.40;99.90
16040;DHT22;8124;48.634;8.120;2023-07-29T20:45:21;24.40;99.90
16040;DHT22;8124;48.634;8.120;2023-07-29T20:50:25;24.30;99.90
16040;DHT22;8124;48.634;8.120;2023-07-29T20:55:28;24.50;99.90
16040;DHT22;8124;48.634;8.120;2023-07-29T21:00:32;24.40;99.90
16040;DHT22;8124;48.634;8.120;2023-07-29T21:05:36;24.30;99.90
16040;DHT22;8124;48.634;8.120;2023-07-29T21:10:39;24.30;99.90
16040;DHT22;8124;48.634;8.120;2023-07-29T21:15:49;24.30;99.90
16040;DHT22;8124;48.634;8.120;2023-07-29T21:20:52;24.20;99.90
16040;DHT22;8124;48.634;8.120;2023-07-29T21:25:55;24.20;99.90
16040;DHT22;8124;48.634;8.120;2023-07-29T21:31:01;24.10;99.90
16040;DHT22;8124;48.634;8.120;2023-07-29T21:36:04;23.90;99.90
16040;DHT22;8124;48.634;8.120;2023-07-29T21:41:07;24.00;99.90
16040;DHT22;8124;48.634;8.120;2023-07-29T21:46:12;24.00;99.90
16040;DHT22;8124;48.634;8.120;2023-07-29T21:51:15;23.40;99.90
16040;DHT22;8124;48.634;8.120;2023-07-29T21:56:18;23.30;99.90
16040;DHT22;8124;48.634;8.120;2023-07-29T22:01:22;23.10;99.90
16040;DHT22;8124;48.634;8.120;2023-07-29T22:06:26;23.10;99.90
16040;DHT22;8124;48.634;8.120;2023-07-29T22:11:29;23.30;99.90
16040;DHT22;8124;48.634;8.120;2023-07-29T22:16:33;23.20;99.90
16040;DHT22;8124;48.634;8.120;2023-07-29T22:21:36;23.20;99.90
16040;DHT22;8124;48.634;8.120;2023-07-29T22:26:40;23.10;99.90
16040;DHT22;8124;48.634;8.120;2023-07-29T22:31:44;23.10;99.90
16040;DHT22;8124;48.634;8.120;2023-07-29T22:36:48;23.00;99.90
16040;DHT22;8124;48.634;8.120;2023-07-29T22:41:51;22.90;99.90
16040;DHT22;8124;48.634;8.120;2023-07-29T22:46:55;22.80;99.90
16040;DHT22;8124;48.634;8.120;2023-07-29T22:51:58;22.80;99.90
16040;DHT22;8124;48.634;8.120;2023-07-29T22:57:02;22.60;99.90
16040;DHT22;8124;48.634;8.120;2023-07-29T23:02:06;22.70;99.90
16040;DHT22;8124;48.634;8.120;2023-07-29T23:07:09;22.60;99.90
16040;DHT22;8124;48.634;8.120;2023-07-29T23:12:12;22.70;99.90
16040;DHT22;8124;48.634;8.120;2023-07-29T23:17:17;22.90;99.90
16040;DHT22;8124;48.634;8.120;2023-07-29T23:22:20;23.00;99.90
16040;DHT22;8124;48.634;8.120;2023-07-29T23:27:23;23.10;99.90
16040;DHT22;8124;48.634;8.120;2023-07-29T23:32:27;23.00;99.90
16040;DHT22;8124;48.634;8.120;2023-07-29T23:37:30;23.00;99.90
16040;DHT22;8124;48.634;8.120;2023-07-29T23:42:33;23.00;99.90
16040;DHT22;8124;48.634;8.120;2023-07-29T23:47:38;23.10;99.90
16040;DHT22;8124;48.634;8.120;2023-07-29T23:52:41;23.00;99.90
16040;DHT22;8124;48.634;8.120;2023-07-29T23:57:44;23.00;99.90
